sensor_id;sensor_type;location;lat;lon;timestamp;P1;durP1;ratioP1;P2;durP2;ratioP2
18857;SDS011;9558;50.178;8.370;2022-09-30T00:01:12;1.27;;;0.82;;
18857;SDS011;9558;50.178;8.370;2022-09-30T00:03:38;1.10;;;1.00;;
18857;SDS011;9558;50.178;8.370;2022-09-30T00:06:05;2.28;;;1.48;;
18857;SDS011;9558;50.178;8.370;2022-09-30T00:08:33;1.50;;;0.95;;
18857;SDS011;9558;50.178;8.370;2022-09-30T00:11:00;1.27;;;1.00;;
18857;SDS011;9558;50.178;8.370;2022-09-30T00:13:29;3.50;;;0.73;;
18857;SDS011;9558;50.178;8.370;2022-09-30T00:15:57;1.20;;;0.77;;
18857;SDS011;9558;50.178;8.370;2022-09-30T00:18:24;1.38;;;0.73;;
18857;SDS011;9558;50.178;8.370;2022-09-30T00:20:50;1.38;;;0.70;;
18857;SDS011;9558;50.178;8.370;2022-09-30T00:23:17;3.88;;;0.80;;
18857;SDS011;9558;50.178;8.370;2022-09-30T00:25:43;0.88;;;0.70;;
18857;SDS011;9558;50.178;8.370;2022-09-30T00:28:10;2.47;;;0.77;;
18857;SDS011;9558;50.178;8.370;2022-09-30T00:30:37;1.20;;;1.10;;
18857;SDS011;9558;50.178;8.370;2022-09-30T00:33:04;5.82;;;1.08;;
18857;SDS011;9558;50.178;8.370;2022-09-30T00:35:30;3.00;;;0.90;;
18857;SDS011;9558;50.178;8.370;2022-09-30T00:37:57;1.20;;;0.88;;
18857;SDS011;9558;50.178;8.370;2022-09-30T00:40:24;1.10;;;0.85;;
18857;SDS011;9558;50.178;8.370;2022-09-30T00:42:51;1.05;;;0.98;;
18857;SDS011;9558;50.178;8.370;2022-09-30T00:45:18;0.60;;;0.60;;
18857;SDS011;9558;50.178;8.370;2022-09-30T00:47:49;0.68;;;0.60;;
18857;SDS011;9558;50.178;8.370;2022-09-30T00:53:10;0.52;;;0.52;;
18857;SDS011;9558;50.178;8.370;2022-09-30T00:55:44;1.30;;;0.93;;
18857;SDS011;9558;50.178;8.370;2022-09-30T00:58:17;3.53;;;1.58;;
18857;SDS011;9558;50.178;8.370;2022-09-30T01:00:48;0.90;;;0.85;;
18857;SDS011;9558;50.178;8.370;2022-09-30T01:03:17;1.73;;;0.65;;
18857;SDS011;9558;50.178;8.370;2022-09-30T01:05:46;1.42;;;1.30;;
18857;SDS011;9558;50.178;8.370;2022-09-30T01:08:13;0.73;;;0.73;;
18857;SDS011;9558;50.178;8.370;2022-09-30T01:10:42;1.08;;;0.90;;
18857;SDS011;9558;50.178;8.370;2022-09-30T01:13:08;2.63;;;0.82;;
18857;SDS011;9558;50.178;8.370;2022-09-30T01:15:38;1.35;;;0.80;;
18857;SDS011;9558;50.178;8.370;2022-09-30T01:18:22;0.88;;;0.73;;
18857;SDS011;9558;50.178;8.370;2022-09-30T01:21:03;1.42;;;1.23;;
18857;SDS011;9558;50.178;8.370;2022-09-30T01:23:54;0.95;;;0.80;;
18857;SDS011;9558;50.178;8.370;2022-09-30T01:35:45;2.33;;;1.17;;
18857;SDS011;9558;50.178;8.370;2022-09-30T01:38:25;0.70;;;0.60;;
18857;SDS011;9558;50.178;8.370;2022-09-30T01:40:57;1.92;;;0.85;;
18857;SDS011;9558;50.178;8.370;2022-09-30T01:43:35;1.85;;;0.95;;
18857;SDS011;9558;50.178;8.370;2022-09-30T01:46:10;1.75;;;1.20;;
18857;SDS011;9558;50.178;8.370;2022-09-30T01:48:47;0.88;;;0.88;;
18857;SDS011;9558;50.178;8.370;2022-09-30T01:51:19;1.42;;;0.80;;
18857;SDS011;9558;50.178;8.370;2022-09-30T01:53:56;1.00;;;0.80;;
18857;SDS011;9558;50.178;8.370;2022-09-30T01:56:28;1.48;;;1.13;;
18857;SDS011;9558;50.178;8.370;2022-09-30T01:59:00;2.78;;;0.98;;
18857;SDS011;9558;50.178;8.370;2022-09-30T02:01:35;1.10;;;0.90;;
18857;SDS011;9558;50.178;8.370;2022-09-30T02:04:06;0.77;;;0.60;;
18857;SDS011;9558;50.178;8.370;2022-09-30T02:06:38;0.95;;;0.85;;
18857;SDS011;9558;50.178;8.370;2022-09-30T02:09:08;1.33;;;1.08;;
18857;SDS011;9558;50.178;8.370;2022-09-30T02:11:39;0.90;;;0.80;;
18857;SDS011;9558;50.178;8.370;2022-09-30T02:14:08;1.20;;;0.93;;
18857;SDS011;9558;50.178;8.370;2022-09-30T02:16:39;0.80;;;0.68;;
18857;SDS011;9558;50.178;8.370;2022-09-30T02:19:12;0.75;;;0.50;;
18857;SDS011;9558;50.178;8.370;2022-09-30T02:21:45;0.73;;;0.70;;
18857;SDS011;9558;50.178;8.370;2022-09-30T02:24:16;0.68;;;0.45;;
18857;SDS011;9558;50.178;8.370;2022-09-30T02:26:47;0.40;;;0.40;;
18857;SDS011;9558;50.178;8.370;2022-09-30T02:29:16;0.52;;;0.52;;
18857;SDS011;9558;50.178;8.370;2022-09-30T02:31:48;1.70;;;0.80;;
18857;SDS011;9558;50.178;8.370;2022-09-30T02:34:20;1.65;;;0.70;;
18857;SDS011;9558;50.178;8.370;2022-09-30T02:36:52;0.80;;;0.80;;
18857;SDS011;9558;50.178;8.370;2022-09-30T02:39:26;1.35;;;1.10;;
18857;SDS011;9558;50.178;8.370;2022-09-30T02:42:01;1.10;;;0.82;;
18857;SDS011;9558;50.178;8.370;2022-09-30T02:44:32;1.80;;;0.73;;
18857;SDS011;9558;50.178;8.370;2022-09-30T02:47:01;1.13;;;0.65;;
18857;SDS011;9558;50.178;8.370;2022-09-30T02:49:39;0.75;;;0.55;;
18857;SDS011;9558;50.178;8.370;2022-09-30T02:52:14;0.38;;;0.30;;
18857;SDS011;9558;50.178;8.370;2022-09-30T02:54:49;1.25;;;0.65;;
18857;SDS011;9558;50.178;8.370;2022-09-30T02:57:29;1.10;;;0.93;;
18857;SDS011;9558;50.178;8.370;2022-09-30T03:00:03;2.42;;;0.90;;
18857;SDS011;9558;50.178;8.370;2022-09-30T03:02:32;0.70;;;0.70;;
18857;SDS011;9558;50.178;8.370;2022-09-30T03:05:00;0.57;;;0.50;;
18857;SDS011;9558;50.178;8.370;2022-09-30T03:07:27;1.13;;;0.60;;
18857;SDS011;9558;50.178;8.370;2022-09-30T03:09:54;0.95;;;0.65;;
18857;SDS011;9558;50.178;8.370;2022-09-30T03:12:25;2.42;;;0.93;;
18857;SDS011;9558;50.178;8.370;2022-09-30T03:15:07;0.52;;;0.52;;
18857;SDS011;9558;50.178;8.370;2022-09-30T03:17:49;1.98;;;0.60;;
18857;SDS011;9558;50.178;8.370;2022-09-30T03:20:32;1.20;;;0.65;;
18857;SDS011;9558;50.178;8.370;2022-09-30T03:23:20;12.40;;;0.90;;
18857;SDS011;9558;50.178;8.370;2022-09-30T03:26:00;2.45;;;1.45;;
18857;SDS011;9558;50.178;8.370;2022-09-30T03:28:40;0.50;;;0.50;;
18857;SDS011;9558;50.178;8.370;2022-09-30T03:31:18;0.50;;;0.50;;
18857;SDS011;9558;50.178;8.370;2022-09-30T03:33:52;0.30;;;0.22;;
18857;SDS011;9558;50.178;8.370;2022-09-30T03:36:28;1.75;;;0.60;;
18857;SDS011;9558;50.178;8.370;2022-09-30T03:39:02;0.95;;;0.95;;
18857;SDS011;9558;50.178;8.370;2022-09-30T03:41:37;1.17;;;0.65;;
18857;SDS011;9558;50.178;8.370;2022-09-30T03:44:07;2.15;;;0.77;;
18857;SDS011;9558;50.178;8.370;2022-09-30T03:46:38;1.23;;;0.98;;
18857;SDS011;9558;50.178;8.370;2022-09-30T03:49:08;1.67;;;0.90;;
18857;SDS011;9558;50.178;8.370;2022-09-30T03:51:39;1.85;;;1.15;;
18857;SDS011;9558;50.178;8.370;2022-09-30T03:54:06;1.85;;;0.75;;
18857;SDS011;9558;50.178;8.370;2022-09-30T03:56:34;1.08;;;0.70;;
18857;SDS011;9558;50.178;8.370;2022-09-30T03:59:08;1.08;;;0.75;;
18857;SDS011;9558;50.178;8.370;2022-09-30T04:01:35;0.88;;;0.45;;
18857;SDS011;9558;50.178;8.370;2022-09-30T04:04:03;0.55;;;0.50;;
18857;SDS011;9558;50.178;8.370;2022-09-30T04:06:30;5.95;;;1.00;;
18857;SDS011;9558;50.178;8.370;2022-09-30T04:08:57;2.38;;;0.80;;
18857;SDS011;9558;50.178;8.370;2022-09-30T04:11:24;1.20;;;1.10;;
18857;SDS011;9558;50.178;8.370;2022-09-30T04:13:50;1.85;;;1.55;;
18857;SDS011;9558;50.178;8.370;2022-09-30T04:16:17;4.03;;;2.00;;
18857;SDS011;9558;50.178;8.370;2022-09-30T04:18:44;3.53;;;2.05;;
18857;SDS011;9558;50.178;8.370;2022-09-30T04:21:11;1.20;;;1.10;;
18857;SDS011;9558;50.178;8.370;2022-09-30T04:23:39;2.10;;;0.93;;
18857;SDS011;9558;50.178;8.370;2022-09-30T04:26:09;0.82;;;0.63;;
18857;SDS011;9558;50.178;8.370;2022-09-30T04:28:36;2.00;;;1.30;;
18857;SDS011;9558;50.178;8.370;2022-09-30T04:31:03;2.42;;;1.15;;
18857;SDS011;9558;50.178;8.370;2022-09-30T04:35:57;0.52;;;0.47;;
18857;SDS011;9558;50.178;8.370;2022-09-30T04:40:52;0.57;;;0.40;;
18857;SDS011;9558;50.178;8.370;2022-09-30T04:45:48;0.75;;;0.75;;
18857;SDS011;9558;50.178;8.370;2022-09-30T04:48:16;0.32;;;0.32;;
18857;SDS011;9558;50.178;8.370;2022-09-30T04:50:43;1.02;;;0.82;;
18857;SDS011;9558;50.178;8.370;2022-09-30T04:53:10;1.38;;;1.27;;
18857;SDS011;9558;50.178;8.370;2022-09-30T04:55:38;1.23;;;0.80;;
18857;SDS011;9558;50.178;8.370;2022-09-30T04:58:05;1.00;;;0.85;;
18857;SDS011;9558;50.178;8.370;2022-09-30T05:00:33;1.35;;;1.25;;
18857;SDS011;9558;50.178;8.370;2022-09-30T05:02:59;0.75;;;0.70;;
18857;SDS011;9558;50.178;8.370;2022-09-30T05:05:26;1.30;;;1.10;;
18857;SDS011;9558;50.178;8.370;2022-09-30T05:07:52;1.00;;;0.57;;
18857;SDS011;9558;50.178;8.370;2022-09-30T05:10:18;0.77;;;0.77;;
18857;SDS011;9558;50.178;8.370;2022-09-30T05:12:45;1.20;;;0.80;;
18857;SDS011;9558;50.178;8.370;2022-09-30T05:15:12;3.83;;;1.20;;
18857;SDS011;9558;50.178;8.370;2022-09-30T05:17:40;9.45;;;1.55;;
18857;SDS011;9558;50.178;8.370;2022-09-30T05:22:35;1.48;;;0.95;;
18857;SDS011;9558;50.178;8.370;2022-09-30T05:25:02;5.30;;;1.70;;
18857;SDS011;9558;50.178;8.370;2022-09-30T05:29:56;1.02;;;0.88;;
18857;SDS011;9558;50.178;8.370;2022-09-30T05:32:22;1.55;;;1.30;;
18857;SDS011;9558;50.178;8.370;2022-09-30T05:34:51;2.65;;;1.75;;
18857;SDS011;9558;50.178;8.370;2022-09-30T05:37:19;1.70;;;1.60;;
18857;SDS011;9558;50.178;8.370;2022-09-30T05:39:45;0.93;;;0.90;;
18857;SDS011;9558;50.178;8.370;2022-09-30T05:42:12;4.50;;;1.42;;
18857;SDS011;9558;50.178;8.370;2022-09-30T05:44:38;2.45;;;1.15;;
18857;SDS011;9558;50.178;8.370;2022-09-30T05:47:05;1.85;;;0.73;;
18857;SDS011;9558;50.178;8.370;2022-09-30T05:49:35;1.45;;;0.93;;
18857;SDS011;9558;50.178;8.370;2022-09-30T05:52:03;0.90;;;0.90;;
18857;SDS011;9558;50.178;8.370;2022-09-30T05:56:55;0.25;;;0.25;;
18857;SDS011;9558;50.178;8.370;2022-09-30T05:59:22;0.20;;;0.20;;
18857;SDS011;9558;50.178;8.370;2022-09-30T06:01:49;1.30;;;0.95;;
18857;SDS011;9558;50.178;8.370;2022-09-30T06:04:15;1.70;;;0.75;;
18857;SDS011;9558;50.178;8.370;2022-09-30T06:06:42;2.58;;;0.85;;
18857;SDS011;9558;50.178;8.370;2022-09-30T06:09:10;1.67;;;1.05;;
18857;SDS011;9558;50.178;8.370;2022-09-30T06:14:03;0.80;;;0.80;;
18857;SDS011;9558;50.178;8.370;2022-09-30T06:16:29;0.63;;;0.55;;
18857;SDS011;9558;50.178;8.370;2022-09-30T06:18:56;1.38;;;0.68;;
18857;SDS011;9558;50.178;8.370;2022-09-30T06:21:23;0.93;;;0.63;;
18857;SDS011;9558;50.178;8.370;2022-09-30T06:23:50;0.38;;;0.13;;
18857;SDS011;9558;50.178;8.370;2022-09-30T06:26:18;1.25;;;1.02;;
18857;SDS011;9558;50.178;8.370;2022-09-30T06:28:44;1.00;;;0.80;;
18857;SDS011;9558;50.178;8.370;2022-09-30T06:31:11;0.90;;;0.73;;
18857;SDS011;9558;50.178;8.370;2022-09-30T06:33:37;0.75;;;0.50;;
18857;SDS011;9558;50.178;8.370;2022-09-30T06:36:04;1.42;;;0.73;;
18857;SDS011;9558;50.178;8.370;2022-09-30T06:38:31;0.77;;;0.52;;
18857;SDS011;9558;50.178;8.370;2022-09-30T06:41:01;0.63;;;0.57;;
18857;SDS011;9558;50.178;8.370;2022-09-30T06:43:29;1.13;;;0.93;;
18857;SDS011;9558;50.178;8.370;2022-09-30T06:45:56;0.55;;;0.55;;
18857;SDS011;9558;50.178;8.370;2022-09-30T06:48:22;1.75;;;0.95;;
18857;SDS011;9558;50.178;8.370;2022-09-30T06:50:49;1.05;;;0.70;;
18857;SDS011;9558;50.178;8.370;2022-09-30T06:53:17;1.85;;;1.15;;
18857;SDS011;9558;50.178;8.370;2022-09-30T06:55:43;0.88;;;0.82;;
18857;SDS011;9558;50.178;8.370;2022-09-30T06:58:12;3.22;;;1.10;;
18857;SDS011;9558;50.178;8.370;2022-09-30T07:00:42;0.70;;;0.50;;
18857;SDS011;9558;50.178;8.370;2022-09-30T07:03:09;2.45;;;1.38;;
18857;SDS011;9558;50.178;8.370;2022-09-30T07:05:52;14.23;;;1.05;;
18857;SDS011;9558;50.178;8.370;2022-09-30T07:08:21;1.27;;;0.90;;
18857;SDS011;9558;50.178;8.370;2022-09-30T07:10:49;0.55;;;0.50;;
18857;SDS011;9558;50.178;8.370;2022-09-30T07:13:16;0.77;;;0.70;;
18857;SDS011;9558;50.178;8.370;2022-09-30T07:15:44;0.95;;;0.95;;
18857;SDS011;9558;50.178;8.370;2022-09-30T07:18:11;2.05;;;0.95;;
18857;SDS011;9558;50.178;8.370;2022-09-30T07:20:37;1.60;;;0.73;;
18857;SDS011;9558;50.178;8.370;2022-09-30T07:23:04;0.80;;;0.80;;
18857;SDS011;9558;50.178;8.370;2022-09-30T07:25:30;1.15;;;0.75;;
18857;SDS011;9558;50.178;8.370;2022-09-30T07:27:57;0.95;;;0.85;;
18857;SDS011;9558;50.178;8.370;2022-09-30T07:30:23;1.67;;;1.48;;
18857;SDS011;9558;50.178;8.370;2022-09-30T07:32:51;3.38;;;1.52;;
18857;SDS011;9558;50.178;8.370;2022-09-30T07:35:18;0.57;;;0.52;;
18857;SDS011;9558;50.178;8.370;2022-09-30T07:37:44;2.00;;;1.25;;
18857;SDS011;9558;50.178;8.370;2022-09-30T07:40:11;0.85;;;0.73;;
18857;SDS011;9558;50.178;8.370;2022-09-30T07:42:38;0.77;;;0.70;;
18857;SDS011;9558;50.178;8.370;2022-09-30T07:45:09;1.17;;;0.85;;
18857;SDS011;9558;50.178;8.370;2022-09-30T07:47:41;1.23;;;1.00;;
18857;SDS011;9558;50.178;8.370;2022-09-30T07:50:08;1.83;;;1.20;;
18857;SDS011;9558;50.178;8.370;2022-09-30T07:52:37;1.00;;;0.80;;
18857;SDS011;9558;50.178;8.370;2022-09-30T07:55:04;0.70;;;0.70;;
18857;SDS011;9558;50.178;8.370;2022-09-30T07:57:30;1.52;;;0.98;;
18857;SDS011;9558;50.178;8.370;2022-09-30T07:59:57;0.60;;;0.60;;
18857;SDS011;9558;50.178;8.370;2022-09-30T08:02:23;0.98;;;0.70;;
18857;SDS011;9558;50.178;8.370;2022-09-30T08:04:50;1.33;;;1.05;;
18857;SDS011;9558;50.178;8.370;2022-09-30T08:07:18;1.60;;;0.90;;
18857;SDS011;9558;50.178;8.370;2022-09-30T08:09:44;0.98;;;0.80;;
18857;SDS011;9558;50.178;8.370;2022-09-30T08:12:11;1.80;;;0.88;;
18857;SDS011;9558;50.178;8.370;2022-09-30T08:14:37;3.05;;;0.93;;
18857;SDS011;9558;50.178;8.370;2022-09-30T08:17:04;0.82;;;0.70;;
18857;SDS011;9558;50.178;8.370;2022-09-30T08:19:30;1.95;;;1.08;;
18857;SDS011;9558;50.178;8.370;2022-09-30T08:21:58;1.40;;;1.25;;
18857;SDS011;9558;50.178;8.370;2022-09-30T08:24:25;2.58;;;1.25;;
18857;SDS011;9558;50.178;8.370;2022-09-30T08:26:52;1.60;;;0.95;;
18857;SDS011;9558;50.178;8.370;2022-09-30T08:31:45;1.92;;;0.88;;
18857;SDS011;9558;50.178;8.370;2022-09-30T08:34:12;1.23;;;0.98;;
18857;SDS011;9558;50.178;8.370;2022-09-30T08:36:39;3.88;;;0.90;;
18857;SDS011;9558;50.178;8.370;2022-09-30T08:39:05;0.88;;;0.60;;
18857;SDS011;9558;50.178;8.370;2022-09-30T08:41:44;1.65;;;0.70;;
18857;SDS011;9558;50.178;8.370;2022-09-30T08:44:21;0.75;;;0.70;;
18857;SDS011;9558;50.178;8.370;2022-09-30T08:47:00;1.10;;;1.00;;
18857;SDS011;9558;50.178;8.370;2022-09-30T08:49:37;2.88;;;1.30;;
18857;SDS011;9558;50.178;8.370;2022-09-30T08:52:15;2.42;;;1.17;;
18857;SDS011;9558;50.178;8.370;2022-09-30T08:54:46;2.45;;;1.30;;
18857;SDS011;9558;50.178;8.370;2022-09-30T08:57:16;7.32;;;1.80;;
18857;SDS011;9558;50.178;8.370;2022-09-30T08:59:45;2.00;;;1.55;;
18857;SDS011;9558;50.178;8.370;2022-09-30T09:02:15;1.83;;;1.50;;
18857;SDS011;9558;50.178;8.370;2022-09-30T09:04:45;2.00;;;1.25;;
18857;SDS011;9558;50.178;8.370;2022-09-30T09:07:18;3.17;;;1.40;;
18857;SDS011;9558;50.178;8.370;2022-09-30T09:09:59;2.17;;;1.60;;
18857;SDS011;9558;50.178;8.370;2022-09-30T09:12:36;2.42;;;1.80;;
18857;SDS011;9558;50.178;8.370;2022-09-30T09:15:13;3.50;;;1.92;;
18857;SDS011;9558;50.178;8.370;2022-09-30T09:18:01;1.65;;;1.52;;
18857;SDS011;9558;50.178;8.370;2022-09-30T09:20:50;2.35;;;1.40;;
18857;SDS011;9558;50.178;8.370;2022-09-30T09:23:20;2.83;;;1.80;;
18857;SDS011;9558;50.178;8.370;2022-09-30T09:25:47;2.97;;;1.83;;
18857;SDS011;9558;50.178;8.370;2022-09-30T09:28:22;13.10;;;2.08;;
18857;SDS011;9558;50.178;8.370;2022-09-30T09:30:56;2.90;;;2.00;;
18857;SDS011;9558;50.178;8.370;2022-09-30T09:33:25;3.85;;;1.98;;
18857;SDS011;9558;50.178;8.370;2022-09-30T09:35:59;3.08;;;1.90;;
18857;SDS011;9558;50.178;8.370;2022-09-30T09:38:33;3.95;;;2.05;;
18857;SDS011;9558;50.178;8.370;2022-09-30T09:41:08;3.33;;;1.77;;
18857;SDS011;9558;50.178;8.370;2022-09-30T09:43:54;3.72;;;1.95;;
18857;SDS011;9558;50.178;8.370;2022-09-30T09:46:28;2.50;;;1.95;;
18857;SDS011;9558;50.178;8.370;2022-09-30T09:55:02;3.22;;;2.28;;
18857;SDS011;9558;50.178;8.370;2022-09-30T09:57:29;4.65;;;2.00;;
18857;SDS011;9558;50.178;8.370;2022-09-30T09:59:58;2.85;;;1.75;;
18857;SDS011;9558;50.178;8.370;2022-09-30T10:02:57;2.83;;;1.80;;
18857;SDS011;9558;50.178;8.370;2022-09-30T10:05:29;6.00;;;2.03;;
18857;SDS011;9558;50.178;8.370;2022-09-30T10:08:10;2.97;;;2.08;;
18857;SDS011;9558;50.178;8.370;2022-09-30T10:10:41;3.22;;;1.70;;
18857;SDS011;9558;50.178;8.370;2022-09-30T10:13:17;2.78;;;1.75;;
18857;SDS011;9558;50.178;8.370;2022-09-30T10:15:47;3.80;;;2.17;;
18857;SDS011;9558;50.178;8.370;2022-09-30T10:18:16;5.38;;;2.15;;
18857;SDS011;9558;50.178;8.370;2022-09-30T10:20:50;2.55;;;1.90;;
18857;SDS011;9558;50.178;8.370;2022-09-30T10:23:20;3.47;;;2.20;;
18857;SDS011;9558;50.178;8.370;2022-09-30T10:25:55;4.05;;;2.25;;
18857;SDS011;9558;50.178;8.370;2022-09-30T10:28:28;5.03;;;2.50;;
18857;SDS011;9558;50.178;8.370;2022-09-30T10:31:02;3.95;;;2.15;;
18857;SDS011;9558;50.178;8.370;2022-09-30T10:33:32;4.25;;;2.28;;
18857;SDS011;9558;50.178;8.370;2022-09-30T10:36:10;4.05;;;2.67;;
18857;SDS011;9558;50.178;8.370;2022-09-30T10:38:45;3.38;;;1.90;;
18857;SDS011;9558;50.178;8.370;2022-09-30T10:41:20;2.05;;;1.42;;
18857;SDS011;9558;50.178;8.370;2022-09-30T10:43:49;3.08;;;1.77;;
18857;SDS011;9558;50.178;8.370;2022-09-30T10:46:21;2.10;;;1.52;;
18857;SDS011;9558;50.178;8.370;2022-09-30T10:48:50;1.60;;;1.20;;
18857;SDS011;9558;50.178;8.370;2022-09-30T10:51:23;3.25;;;1.52;;
18857;SDS011;9558;50.178;8.370;2022-09-30T10:59:13;1.52;;;1.05;;
18857;SDS011;9558;50.178;8.370;2022-09-30T11:01:48;2.30;;;1.40;;
18857;SDS011;9558;50.178;8.370;2022-09-30T11:04:21;2.03;;;1.35;;
18857;SDS011;9558;50.178;8.370;2022-09-30T11:06:53;1.33;;;1.10;;
18857;SDS011;9558;50.178;8.370;2022-09-30T11:09:28;2.22;;;1.08;;
18857;SDS011;9558;50.178;8.370;2022-09-30T11:12:01;4.85;;;1.40;;
18857;SDS011;9558;50.178;8.370;2022-09-30T11:14:38;0.95;;;0.88;;
18857;SDS011;9558;50.178;8.370;2022-09-30T11:17:17;1.25;;;0.90;;
18857;SDS011;9558;50.178;8.370;2022-09-30T11:19:52;0.95;;;0.82;;
18857;SDS011;9558;50.178;8.370;2022-09-30T11:22:28;1.15;;;0.98;;
18857;SDS011;9558;50.178;8.370;2022-09-30T11:25:02;2.67;;;1.20;;
18857;SDS011;9558;50.178;8.370;2022-09-30T11:27:32;1.75;;;1.15;;
18857;SDS011;9558;50.178;8.370;2022-09-30T11:30:11;2.95;;;1.10;;
18857;SDS011;9558;50.178;8.370;2022-09-30T11:32:48;0.77;;;0.60;;
18857;SDS011;9558;50.178;8.370;2022-09-30T11:35:29;0.50;;;0.50;;
18857;SDS011;9558;50.178;8.370;2022-09-30T11:38:14;3.22;;;1.00;;
18857;SDS011;9558;50.178;8.370;2022-09-30T11:40:52;1.30;;;0.82;;
18857;SDS011;9558;50.178;8.370;2022-09-30T11:43:29;2.22;;;0.63;;
18857;SDS011;9558;50.178;8.370;2022-09-30T11:46:14;0.82;;;0.82;;
18857;SDS011;9558;50.178;8.370;2022-09-30T11:48:54;2.03;;;1.45;;
18857;SDS011;9558;50.178;8.370;2022-09-30T11:51:40;1.70;;;1.30;;
18857;SDS011;9558;50.178;8.370;2022-09-30T11:54:17;1.77;;;1.00;;
18857;SDS011;9558;50.178;8.370;2022-09-30T11:56:53;1.55;;;1.02;;
18857;SDS011;9558;50.178;8.370;2022-09-30T11:59:28;1.65;;;1.30;;
18857;SDS011;9558;50.178;8.370;2022-09-30T12:02:01;2.30;;;1.20;;
18857;SDS011;9558;50.178;8.370;2022-09-30T12:04:31;2.30;;;1.30;;
18857;SDS011;9558;50.178;8.370;2022-09-30T12:07:05;1.85;;;0.85;;
18857;SDS011;9558;50.178;8.370;2022-09-30T12:09:41;1.77;;;0.90;;
18857;SDS011;9558;50.178;8.370;2022-09-30T12:12:12;2.63;;;1.50;;
18857;SDS011;9558;50.178;8.370;2022-09-30T12:14:41;15.45;;;1.42;;
18857;SDS011;9558;50.178;8.370;2022-09-30T12:17:15;1.38;;;0.98;;
18857;SDS011;9558;50.178;8.370;2022-09-30T12:19:48;1.17;;;0.80;;
18857;SDS011;9558;50.178;8.370;2022-09-30T12:22:19;1.52;;;1.17;;
18857;SDS011;9558;50.178;8.370;2022-09-30T12:24:52;3.20;;;1.25;;
18857;SDS011;9558;50.178;8.370;2022-09-30T12:27:21;1.63;;;1.00;;
18857;SDS011;9558;50.178;8.370;2022-09-30T12:29:54;1.75;;;1.08;;
18857;SDS011;9558;50.178;8.370;2022-09-30T12:36:00;4.95;;;1.23;;
18857;SDS011;9558;50.178;8.370;2022-09-30T12:38:47;1.67;;;1.00;;
18857;SDS011;9558;50.178;8.370;2022-09-30T12:41:39;3.88;;;0.95;;
18857;SDS011;9558;50.178;8.370;2022-09-30T12:44:30;1.85;;;1.02;;
18857;SDS011;9558;50.178;8.370;2022-09-30T12:47:09;1.20;;;0.75;;
18857;SDS011;9558;50.178;8.370;2022-09-30T12:49:45;1.17;;;1.00;;
18857;SDS011;9558;50.178;8.370;2022-09-30T12:52:16;4.50;;;1.27;;
18857;SDS011;9558;50.178;8.370;2022-09-30T12:54:46;2.08;;;0.90;;
18857;SDS011;9558;50.178;8.370;2022-09-30T12:57:17;0.85;;;0.80;;
18857;SDS011;9558;50.178;8.370;2022-09-30T12:59:51;0.98;;;0.80;;
18857;SDS011;9558;50.178;8.370;2022-09-30T13:02:30;1.92;;;1.30;;
18857;SDS011;9558;50.178;8.370;2022-09-30T13:08:20;0.95;;;0.73;;
18857;SDS011;9558;50.178;8.370;2022-09-30T13:10:54;1.00;;;0.90;;
18857;SDS011;9558;50.178;8.370;2022-09-30T13:13:24;1.33;;;0.70;;
18857;SDS011;9558;50.178;8.370;2022-09-30T13:15:52;2.60;;;0.73;;
18857;SDS011;9558;50.178;8.370;2022-09-30T13:21:24;1.67;;;1.00;;
18857;SDS011;9558;50.178;8.370;2022-09-30T13:23:53;2.42;;;1.00;;
18857;SDS011;9558;50.178;8.370;2022-09-30T13:26:33;1.80;;;1.17;;
18857;SDS011;9558;50.178;8.370;2022-09-30T13:32:03;2.00;;;0.90;;
18857;SDS011;9558;50.178;8.370;2022-09-30T13:34:31;1.23;;;0.77;;
18857;SDS011;9558;50.178;8.370;2022-09-30T13:37:27;1.63;;;0.80;;
18857;SDS011;9558;50.178;8.370;2022-09-30T13:39:59;0.70;;;0.60;;
18857;SDS011;9558;50.178;8.370;2022-09-30T13:42:29;2.15;;;1.02;;
18857;SDS011;9558;50.178;8.370;2022-09-30T13:45:01;1.63;;;1.10;;
18857;SDS011;9558;50.178;8.370;2022-09-30T13:47:32;1.35;;;0.60;;
18857;SDS011;9558;50.178;8.370;2022-09-30T13:50:05;1.20;;;0.85;;
18857;SDS011;9558;50.178;8.370;2022-09-30T13:52:38;3.58;;;0.70;;
18857;SDS011;9558;50.178;8.370;2022-09-30T13:55:11;0.75;;;0.70;;
18857;SDS011;9558;50.178;8.370;2022-09-30T13:57:45;1.40;;;0.63;;
18857;SDS011;9558;50.178;8.370;2022-09-30T14:00:22;0.82;;;0.43;;
18857;SDS011;9558;50.178;8.370;2022-09-30T14:03:01;0.52;;;0.52;;
18857;SDS011;9558;50.178;8.370;2022-09-30T14:05:40;0.52;;;0.52;;
18857;SDS011;9558;50.178;8.370;2022-09-30T14:08:39;1.08;;;0.80;;
18857;SDS011;9558;50.178;8.370;2022-09-30T14:11:32;1.15;;;0.70;;
18857;SDS011;9558;50.178;8.370;2022-09-30T14:14:12;0.68;;;0.60;;
18857;SDS011;9558;50.178;8.370;2022-09-30T14:20:00;0.88;;;0.68;;
18857;SDS011;9558;50.178;8.370;2022-09-30T14:22:33;1.02;;;0.80;;
18857;SDS011;9558;50.178;8.370;2022-09-30T14:25:01;2.45;;;0.70;;
18857;SDS011;9558;50.178;8.370;2022-09-30T14:27:36;3.83;;;1.05;;
18857;SDS011;9558;50.178;8.370;2022-09-30T14:30:10;0.82;;;0.70;;
18857;SDS011;9558;50.178;8.370;2022-09-30T14:32:42;3.13;;;0.60;;
18857;SDS011;9558;50.178;8.370;2022-09-30T14:35:11;1.05;;;0.47;;
18857;SDS011;9558;50.178;8.370;2022-09-30T14:37:43;0.95;;;0.70;;
18857;SDS011;9558;50.178;8.370;2022-09-30T14:40:14;0.60;;;0.60;;
18857;SDS011;9558;50.178;8.370;2022-09-30T14:42:44;1.27;;;0.75;;
18857;SDS011;9558;50.178;8.370;2022-09-30T14:45:14;0.60;;;0.60;;
18857;SDS011;9558;50.178;8.370;2022-09-30T14:47:46;0.50;;;0.50;;
18857;SDS011;9558;50.178;8.370;2022-09-30T14:50:17;0.70;;;0.70;;
18857;SDS011;9558;50.178;8.370;2022-09-30T14:52:46;1.77;;;0.70;;
18857;SDS011;9558;50.178;8.370;2022-09-30T14:55:20;1.63;;;0.68;;
18857;SDS011;9558;50.178;8.370;2022-09-30T14:57:52;0.55;;;0.40;;
18857;SDS011;9558;50.178;8.370;2022-09-30T15:00:23;0.40;;;0.40;;
18857;SDS011;9558;50.178;8.370;2022-09-30T15:02:53;0.60;;;0.40;;
18857;SDS011;9558;50.178;8.370;2022-09-30T15:07:47;1.27;;;0.68;;
18857;SDS011;9558;50.178;8.370;2022-09-30T15:10:17;0.60;;;0.38;;
18857;SDS011;9558;50.178;8.370;2022-09-30T15:12:46;0.65;;;0.60;;
18857;SDS011;9558;50.178;8.370;2022-09-30T15:15:26;0.50;;;0.50;;
18857;SDS011;9558;50.178;8.370;2022-09-30T15:17:59;0.38;;;0.38;;
18857;SDS011;9558;50.178;8.370;2022-09-30T15:20:40;0.52;;;0.52;;
18857;SDS011;9558;50.178;8.370;2022-09-30T15:23:08;0.52;;;0.52;;
18857;SDS011;9558;50.178;8.370;2022-09-30T15:25:43;0.20;;;0.20;;
18857;SDS011;9558;50.178;8.370;2022-09-30T15:28:09;3.15;;;0.70;;
18857;SDS011;9558;50.178;8.370;2022-09-30T15:30:38;0.30;;;0.30;;
18857;SDS011;9558;50.178;8.370;2022-09-30T15:33:12;0.57;;;0.50;;
18857;SDS011;9558;50.178;8.370;2022-09-30T15:35:41;1.05;;;0.45;;
18857;SDS011;9558;50.178;8.370;2022-09-30T15:38:09;0.40;;;0.40;;
18857;SDS011;9558;50.178;8.370;2022-09-30T15:40:44;0.30;;;0.30;;
18857;SDS011;9558;50.178;8.370;2022-09-30T15:43:15;0.88;;;0.57;;
18857;SDS011;9558;50.178;8.370;2022-09-30T15:46:11;1.65;;;0.50;;
18857;SDS011;9558;50.178;8.370;2022-09-30T15:48:42;2.40;;;0.60;;
18857;SDS011;9558;50.178;8.370;2022-09-30T15:51:22;0.43;;;0.40;;
18857;SDS011;9558;50.178;8.370;2022-09-30T15:53:54;0.28;;;0.28;;
18857;SDS011;9558;50.178;8.370;2022-09-30T15:56:25;0.50;;;0.40;;
18857;SDS011;9558;50.178;8.370;2022-09-30T15:58:57;1.50;;;0.70;;
18857;SDS011;9558;50.178;8.370;2022-09-30T16:01:26;2.20;;;0.95;;
18857;SDS011;9558;50.178;8.370;2022-09-30T16:03:59;0.40;;;0.40;;
18857;SDS011;9558;50.178;8.370;2022-09-30T16:06:30;2.70;;;0.50;;
18857;SDS011;9558;50.178;8.370;2022-09-30T16:09:00;0.38;;;0.38;;
18857;SDS011;9558;50.178;8.370;2022-09-30T16:11:29;0.77;;;0.47;;
18857;SDS011;9558;50.178;8.370;2022-09-30T16:13:59;0.90;;;0.40;;
18857;SDS011;9558;50.178;8.370;2022-09-30T16:16:29;2.05;;;0.50;;
18857;SDS011;9558;50.178;8.370;2022-09-30T16:18:57;0.50;;;0.50;;
18857;SDS011;9558;50.178;8.370;2022-09-30T16:29:44;0.40;;;0.40;;
18857;SDS011;9558;50.178;8.370;2022-09-30T16:32:12;1.55;;;0.77;;
18857;SDS011;9558;50.178;8.370;2022-09-30T16:34:39;0.50;;;0.50;;
18857;SDS011;9558;50.178;8.370;2022-09-30T16:37:09;1.52;;;0.65;;